JST88 YSCB-YSSY
Flight info
| Callsign | JST88 |
|---|---|
| Flight time | N/A |
| Altitude | 15000 |
| Route | CULIN2/35 CULIN Y59 RIVET |
| Aircraft | A20N/M-SDE2E3FGHIRWXY/LB1 |
Departure
| Time | 2026-05-04 08:10 |
|---|---|
| Airport | Canberra Airport (YSCB) |
Arrival
| Time | N/A |
|---|---|
| Airport | Sydney Kingsford Smith International Airport (YSSY) |
| Time | Latitude | Longitude | Altitude | Speed | Heading |
|---|---|---|---|---|---|
| 2026-05-04 07:55 | -35.30879 | 149.19124 | 1879 ft | 0 kts | 270° |
| 2026-05-04 08:03 | -35.30879 | 149.19131 | 1879 ft | 2 kts | 269° |
| 2026-05-04 08:03 | -35.30878 | 149.19152 | 1879 ft | 3 kts | 258° |
| 2026-05-04 08:04 | -35.30873 | 149.19173 | 1875 ft | 3 kts | 247° |
| 2026-05-04 08:04 | -35.30865 | 149.19192 | 1874 ft | 2 kts | 236° |
| 2026-05-04 08:04 | -35.30865 | 149.19193 | 1874 ft | 0 kts | 236° |
| 2026-05-04 08:05 | -35.30871 | 149.19188 | 1877 ft | 3 kts | 213° |
| 2026-05-04 08:05 | -35.30939 | 149.19206 | 1879 ft | 16 kts | 160° |
| 2026-05-04 08:06 | -35.31061 | 149.19239 | 1879 ft | 20 kts | 176° |
| 2026-05-04 08:06 | -35.31209 | 149.19240 | 1879 ft | 22 kts | 180° |
| 2026-05-04 08:06 | -35.31372 | 149.19239 | 1879 ft | 25 kts | 180° |
| 2026-05-04 08:06 | -35.31550 | 149.19238 | 1879 ft | 27 kts | 181° |
| 2026-05-04 08:08 | -35.31925 | 149.19445 | 1879 ft | 0 kts | 359° |
| 2026-05-04 08:08 | -35.31916 | 149.19445 | 1877 ft | 5 kts | 359° |
| 2026-05-04 08:10 | -35.24335 | 149.19996 | 4677 ft | 205 kts | 359° |
| 2026-05-04 08:11 | -35.22838 | 149.20183 | 4939 ft | 228 kts | 359° |
| 2026-05-04 08:11 | -35.19417 | 149.20599 | 6113 ft | 258 kts | 360° |
| 2026-05-04 08:11 | -35.17655 | 149.20823 | 7279 ft | 251 kts | 359° |
| 2026-05-04 08:12 | -35.15942 | 149.21037 | 8331 ft | 251 kts | 359° |
| 2026-05-04 08:12 | -35.14178 | 149.21241 | 9419 ft | 251 kts | 359° |
| 2026-05-04 08:12 | -35.12463 | 149.21452 | 10416 ft | 255 kts | 1° |
| 2026-05-04 08:12 | -35.10614 | 149.21934 | 10840 ft | 284 kts | 10° |
| 2026-05-04 08:13 | -35.08696 | 149.22798 | 11160 ft | 309 kts | 14° |
| 2026-05-04 08:13 | -35.06651 | 149.23772 | 11788 ft | 319 kts | 14° |
| 2026-05-04 08:13 | -35.04565 | 149.24766 | 12624 ft | 324 kts | 15° |
| 2026-05-04 08:13 | -35.02449 | 149.25766 | 13435 ft | 329 kts | 14° |
| 2026-05-04 08:14 | -35.00316 | 149.26868 | 14173 ft | 338 kts | 19° |
| 2026-05-04 08:14 | -34.98229 | 149.28243 | 14917 ft | 343 kts | 22° |
| 2026-05-04 08:14 | -34.96133 | 149.29677 | 15633 ft | 347 kts | 22° |
| 2026-05-04 08:16 | -34.80971 | 149.40669 | 20319 ft | 384 kts | 34° |
| 2026-05-04 08:16 | -34.78991 | 149.42881 | 20894 ft | 389 kts | 34° |
| 2026-05-04 08:16 | -34.77001 | 149.45132 | 21436 ft | 393 kts | 34° |
| 2026-05-04 08:17 | -34.74988 | 149.47405 | 22035 ft | 396 kts | 34° |
| 2026-05-04 08:17 | -34.72956 | 149.49692 | 22622 ft | 399 kts | 34° |
| 2026-05-04 08:17 | -34.70906 | 149.51990 | 23196 ft | 402 kts | 33° |
| 2026-05-04 08:17 | -34.68839 | 149.54299 | 23764 ft | 406 kts | 33° |
| 2026-05-04 08:19 | -34.54181 | 149.70609 | 23865 ft | 410 kts | 34° |
| 2026-05-04 08:19 | -34.52086 | 149.72938 | 23631 ft | 408 kts | 33° |
| 2026-05-04 08:20 | -34.50000 | 149.75251 | 23364 ft | 406 kts | 33° |
| 2026-05-04 08:20 | -34.47922 | 149.77552 | 23092 ft | 404 kts | 33° |
| 2026-05-04 08:20 | -34.45846 | 149.79847 | 22826 ft | 403 kts | 34° |
| 2026-05-04 08:20 | -34.43779 | 149.82132 | 22564 ft | 401 kts | 34° |
| 2026-05-04 08:21 | -34.41721 | 149.84406 | 22293 ft | 399 kts | 34° |
| 2026-05-04 08:21 | -34.39674 | 149.86667 | 22038 ft | 398 kts | 34° |
| 2026-05-04 08:21 | -34.37633 | 149.88919 | 21770 ft | 396 kts | 34° |
| 2026-05-04 08:21 | -34.35597 | 149.91175 | 21510 ft | 396 kts | 34° |
| 2026-05-04 08:22 | -34.33560 | 149.93416 | 21051 ft | 397 kts | 34° |
| 2026-05-04 08:22 | -34.31512 | 149.95656 | 20497 ft | 396 kts | 34° |
| 2026-05-04 08:24 | -34.18086 | 150.11327 | 16773 ft | 381 kts | 54° |
| 2026-05-04 08:24 | -34.17050 | 150.14284 | 16273 ft | 386 kts | 68° |
| 2026-05-04 08:24 | -34.16378 | 150.17415 | 15735 ft | 383 kts | 70° |
| 2026-05-04 08:24 | -34.15729 | 150.20474 | 15232 ft | 379 kts | 70° |
| 2026-05-04 08:25 | -34.15058 | 150.23591 | 14690 ft | 377 kts | 70° |
| 2026-05-04 08:25 | -34.14405 | 150.26624 | 14380 ft | 371 kts | 70° |
| 2026-05-04 08:25 | -34.13754 | 150.29634 | 13899 ft | 370 kts | 70° |
| 2026-05-04 08:25 | -34.13101 | 150.32632 | 13358 ft | 368 kts | 70° |
| 2026-05-04 08:26 | -34.12452 | 150.35605 | 12876 ft | 364 kts | 70° |
| 2026-05-04 08:27 | -34.08122 | 150.55495 | 10077 ft | 325 kts | 70° |
| 2026-05-04 08:28 | -34.07569 | 150.58087 | 9949 ft | 313 kts | 70° |
| 2026-05-04 08:28 | -34.07027 | 150.60610 | 9618 ft | 308 kts | 70° |
| 2026-05-04 08:28 | -34.06493 | 150.63084 | 9315 ft | 303 kts | 70° |
| 2026-05-04 08:28 | -34.05966 | 150.65525 | 8944 ft | 300 kts | 70° |
| 2026-05-04 08:29 | -34.05441 | 150.67952 | 8581 ft | 298 kts | 70° |
| 2026-05-04 08:29 | -34.05095 | 150.69548 | 8339 ft | 296 kts | 70° |
| 2026-05-04 08:29 | -34.04579 | 150.71935 | 7977 ft | 294 kts | 69° |
| 2026-05-04 08:31 | -34.00863 | 150.88305 | 6021 ft | 284 kts | 68° |
| 2026-05-04 08:33 | -33.97242 | 151.04413 | 5994 ft | 285 kts | 70° |
| 2026-05-04 08:33 | -33.96770 | 151.06753 | 6001 ft | 288 kts | 71° |
| 2026-05-04 08:35 | -33.97173 | 151.22720 | 5999 ft | 305 kts | 133° |
| 2026-05-04 08:35 | -33.98613 | 151.24542 | 6000 ft | 305 kts | 133° |
| 2026-05-04 08:35 | -34.00078 | 151.26406 | 6000 ft | 306 kts | 133° |
| 2026-05-04 08:35 | -34.01540 | 151.28266 | 5996 ft | 305 kts | 133° |
| 2026-05-04 08:37 | -34.11445 | 151.35141 | 4573 ft | 276 kts | 173° |
| 2026-05-04 08:37 | -34.13337 | 151.35541 | 4275 ft | 274 kts | 173° |
| 2026-05-04 08:37 | -34.15208 | 151.35928 | 3980 ft | 273 kts | 173° |
| 2026-05-04 08:38 | -34.17070 | 151.36312 | 3773 ft | 267 kts | 173° |
| 2026-05-04 08:38 | -34.18876 | 151.36600 | 3641 ft | 256 kts | 186° |
| 2026-05-04 08:38 | -34.20535 | 151.36063 | 3327 ft | 244 kts | 217° |
| 2026-05-04 08:40 | -34.19613 | 151.26191 | 1991 ft | 196 kts | 333° |
| 2026-05-04 08:40 | -34.18408 | 151.25388 | 1993 ft | 198 kts | 334° |
| 2026-05-04 08:40 | -34.17172 | 151.24736 | 1996 ft | 193 kts | 342° |
| 2026-05-04 08:41 | -34.15860 | 151.24298 | 1995 ft | 197 kts | 347° |
| 2026-05-04 08:41 | -34.14530 | 151.23941 | 1991 ft | 194 kts | 348° |
| 2026-05-04 08:41 | -34.13227 | 151.23597 | 1988 ft | 196 kts | 348° |
| 2026-05-04 08:41 | -34.11867 | 151.23241 | 1995 ft | 200 kts | 348° |
| 2026-05-04 08:42 | -34.10498 | 151.22884 | 1998 ft | 204 kts | 348° |
| 2026-05-04 08:42 | -34.09124 | 151.22523 | 1996 ft | 199 kts | 348° |
| 2026-05-04 08:42 | -34.07767 | 151.22169 | 2002 ft | 202 kts | 348° |
| 2026-05-04 08:42 | -34.06399 | 151.21811 | 1916 ft | 203 kts | 349° |
| 2026-05-04 08:43 | -34.05015 | 151.21449 | 1625 ft | 203 kts | 349° |
| 2026-05-04 08:43 | -34.03608 | 151.21083 | 1356 ft | 218 kts | 350° |
| 2026-05-04 08:43 | -34.02116 | 151.20691 | 1045 ft | 218 kts | 349° |
| 2026-05-04 08:43 | -34.00698 | 151.20323 | 769 ft | 198 kts | 350° |
| 2026-05-04 08:44 | -33.99404 | 151.19994 | 498 ft | 184 kts | 352° |
| 2026-05-04 08:44 | -33.98205 | 151.19692 | 360 ft | 165 kts | 348° |